Winnerscup USA - inventory

Station: Inventory - T Race

Distance: 1 Miles    

Release: 03-Feb-2018 10:00

Weather Release:    Arrival:

Wind at Release:     Wind at Arrival:

Temp at Release: °    Temp at Arrival: °

Lofts: 53

Birds: 278

Clocked: 218

Good Luck to Everyone!
Drops Pos Breeder Pigeon Name Color Sex Ent Arrival Speed To Win Eligible AB
1 Dal-Tex R P C - TX 0448-AU17-DLLS Esmeralda BC H 1 10:39:58.00 44.037 00:00:00 Yes
2 A D L Sheila - IL 0213-AU17-ADL Rockette CWF H 1 10:40:00.00 44.000 00:00:02 Yes
3 Tanai Kantisiri - CA 2928-AU17-COM Platinum BB C 1 10:40:01.00 43.982 00:00:03 Yes
4 Sofija Loft - IL 0011-AU17-BEKO Ludacris BBPD C 1 10:40:04.00 43.927 00:00:06 Yes
5 Sextons Loft - IA 31777-AU17-AA Possible Witness BC C 1 10:40:05.00 43.909 00:00:07 Yes
6 Larry Lewis - OK 8152-AU17-TRPC Destined Class BB C 1 10:40:06.00 43.890 00:00:08 Lost
7 A P C Loft - TX 17369-AU17-APC Let It Be Known BC C 1 10:40:07.00 43.872 00:00:09 Yes
8 Sextons Loft - IA 31786-AU17-AA Dialed 4 Dollars WHGZ C 2 10:40:08.00 43.854 00:00:10 Yes
9 A D L Sheila - IL 0207-AU17-ADL Dialed In Again BB C 2 10:40:09.00 43.836 00:00:11 Yes
9 Larry Lewis - OK 8155-AU17-TRPC Mind Raker RCPD C 2 10:40:09.00 43.836 00:00:11 Yes
11 Champ Camp - IN 0236-AU17-CHMP Classic Tipp BBWF C 1 10:40:10.00 43.817 00:00:12 Yes
12 Mike's Loft - MS 24869-AU17-JEDD Plata O Plomo RC C 1 10:40:11.00 43.799 00:00:13 Yes
12 Jack's Loft - CA 36719-AU17-ARPU Mas Arena BC C 1 10:40:11.00 43.799 00:00:13 Yes
14 Racing Pigeon Mall - WA 0712-AU17-RPM Third Down Charley BC C 1 10:40:13.00 43.763 00:00:15 Yes
15 Hollywood Lou Loft - FL 0056-AU17-LOU Escapade BC C 1 10:40:14.00 43.745 00:00:16 Yes
16 Jack's Loft - CA 4393-AU17-FOYS Today's Hero SIL C 2 10:40:15.00 43.727 00:00:17 Yes
17 Larry Lewis - OK 8146-AU17-TRPC No Exemption BC C 3 10:40:16.00 43.709 00:00:18 Yes
17 B E T Loft - LA 22500-AU17-AA Hollywood's Top Star BB C 1 10:40:16.00 43.709 00:00:18 Yes
19 Tar Syndicate - PA 7974-AU17-TAR Cloud 74 VELV C 1 10:40:17.00 43.691 00:00:19 Yes
20 Sarrett Racing Pigeons - TX 7024-AU17-PPH Similator BB C 1 10:40:18.00 43.672 00:00:20 Lost
21 New Era Loft - PA 11619-AU17-ARPU Danger Zone BC H 1 10:40:20.00 43.636 00:00:22 Yes
21 Champ Camp - IN 0231-AU17-CHMP NEVER BEFORE BB C 2 10:40:20.00 43.636 00:00:22 Yes
23 New Era Loft - PA 11626-AU17-ARPU Key Witness BC C 2 10:40:21.00 43.618 00:00:23 Yes
23 Hi-Cal Connection - CA 0789-AU17-HCAL Red Heat RC C 1 10:40:21.00 43.618 00:00:23 Yes
25 Sienna Loft - NC 37801-AU17-AA Betty Boop SMOK H 1 10:40:23.00 43.582 00:00:25 Yes
26 New Era Loft - PA 11612-AU17-ARPU Last Assignment BCWP H 3 10:40:27.00 43.511 00:00:29 Yes
27 Jack's Loft - CA 4400-AU17-FOYS Peanuts BC C 3 10:40:28.00 43.493 00:00:30 Yes
28 Walstons Warriors - NC 7410-AU17-GL Dullah Bhati BB C 1 10:40:30.00 43.457 00:00:32 Yes
28 Hollywood Lou Loft - FL 0061-AU17-LOU Brilliance BB C 2 10:40:30.00 43.457 00:00:32 Yes
30 G & L Loft - OR 2395-AU17-WPC Brick House RC H 1 10:40:33.00 43.403 00:00:35 Yes
31 A B C Loft2 - NY 1441-AU17-BORO Manhattan BC C 1 10:40:34.00 43.385 00:00:36 Yes
32 A D L Loft - IL 0192-AU17-ADL Over Achiever BBWF C 1 10:40:35.00 43.368 00:00:37 Yes
33 John Partridge - CA 0623-AU17-PASO Monet BBWF C 1 10:40:36.00 43.350 00:00:38 Yes
34 Spirit In The Sky - IL 0372-AU17-LCC Urzsula BB H 1 10:40:37.00 43.332 00:00:39 Yes
35 Goshentown Lofts - TN 1796-AU17-NPA Dossier 96 BB H 1 10:40:38.00 43.314 00:00:40 Yes
36 Johnny's Automotive - CA 32920-AU17-JEDD Deliverance BB C 1 10:40:39.00 43.296 00:00:41 Yes
36 Racing Pigeon Mall - WA 0716-AU17-RPM Phantom Starlight BROZ C 2 10:40:39.00 43.296 00:00:41 Yes
38 Ganus Family Loft - IN 0295-AU17-GFL Delerionn BC H 1 10:40:40.00 43.279 00:00:42 Yes
39 Champ Camp - IN 0265-AU17-CHMP Hell Fire BWFP C 3 10:40:41.00 43.261 00:00:43 Yes
40 Sienna Loft - NC 36772-AU17-AA The General BB C 2 10:40:42.00 43.243 00:00:44 Yes
40 A D L Loft - IL 0170-AU17-ADL Miss Euro BB H 2 10:40:42.00 43.243 00:00:44 Yes
42 Valhalla Loft - CA 0492-AU17-WSJ REIMAR BB C 1 10:40:43.00 43.226 00:00:45 Yes
43 Sienna Loft - NC 36811-AU17-AA Big Blue BB C 3 10:40:44.00 43.208 00:00:46 Yes
44 Champ Camp - IN 0240-AU17-CHMP Iron Mike BB C 4 10:40:45.00 43.190 00:00:47 Yes
45 Nesneb Racing Loft - AL 17134-AU17-MOB Widowed BC H 1 10:40:46.00 43.173 00:00:48 Yes
45 Red Ass Ranch - TX 0154-AU17-RAR I Am One BC H 1 10:40:46.00 43.173 00:00:48 Yes
47 Acre Farms - CA 0342-AU17-GENE Grouponner BC H 1 10:40:47.00 43.155 00:00:49 Yes
48 Ojibwe Loft - OK 0040-AU17-OJIB TICKELO BB H 1 10:40:48.00 43.137 00:00:50 Yes
49 Joe Zarachowicz - MD 2270-AU17-CCC Shooter BB C 1 10:40:49.00 43.120 00:00:51 Yes
50 Dream Team - VT 0573-AU17-JCZL Point Blank BC C 1 10:40:51.00 43.084 00:00:53 Yes
51 Acre Farms - CA 0346-AU17-GENE Take 5 BC C 2 10:40:52.00 43.067 00:00:54 Yes
51 Ganus Family Loft - IN 0292-AU17-GFL Planet Icon BC H 2 10:40:52.00 43.067 00:00:54 Yes
53 Hollywood Lou Loft - FL 0067-AU17-LOU Key Witness SMBB C 3 10:40:53.00 43.049 00:00:55 Yes
53 A B C Loft2 - NY 59757-AU17-ARPU Kryptonite BB C 2 10:40:53.00 43.049 00:00:55 Lost
55 Bieche-Stevenson - CA 7477-AU17-BIEC Second Opinion BB C 1 10:40:54.00 43.032 00:00:56 Lost
56 Racing Pigeon Mall - WA 0715-AU17-RPM Wow Factor BB H 3 10:41:03.00 42.875 00:01:05 Yes
56 Goshentown Lofts - TN 1769-AU17-NPA Crypto Mania SLAT H 2 10:41:03.00 42.875 00:01:05 Yes
58 A B C Loft2 - NY 59760-AU17-ARPU Despite the Challenge BB C 3 10:41:04.00 42.857 00:01:06 Lost
59 Hosanna Lofts - OK 35982-AU17-ARPU Flicka BB C 1 10:41:05.00 42.840 00:01:07 Yes
60 A D L Sheila - IL 0225-AU17-ADL Outlaw Josey Wells BCW C 3 10:41:06.00 42.822 00:01:08 Yes
60 Red Ass Ranch - TX 0163-AU17-RAR Hulk Hogan's Back SMOK C 2 10:41:06.00 42.822 00:01:08 Yes
62 Racing Pigeon Mall - WA 0717-AU17-RPM Rachel Evans BROZ H 4 10:41:08.00 42.788 00:01:10 Yes
62 Sienna Loft - NC 36773-AU17-AA American Pied BCP C 4 10:41:08.00 42.788 00:01:10 Yes
64 Champ Camp - IN 0281-AU17-CHMP Decent Exposure BWFP H 5 10:41:12.00 42.718 00:01:14 Missing
65 Jimmy Zheng Loft - MS 0651-AU17-ZHNG Epanema Dream BBWF H 1 10:41:14.00 42.684 00:01:16 Yes
66 El Dorado Loft - TX 0184-AU17-TXAS Manfreddy BKCW C 1 10:41:17.00 42.632 00:01:19 Yes
67 Sienna Loft - NC 36819-AU17-AA Handsome BBPD C 5 10:41:19.00 42.598 00:01:21 Yes
67 Dream Team - VT 0358-AU17-JCZL Game On BC C 2 10:41:19.00 42.598 00:01:21 Yes
69 Johnny's Automotive - CA 32891-AU17-JEDD Remember August BC H 2 10:41:22.00 42.546 00:01:24 Yes
70 Larry Lewis - OK 8142-AU17-TRPC Travel Frenzy BC C 4 10:41:23.00 42.529 00:01:25 Lost
70 Crescendo Loft - NM 18439-AU17-AA Dhronex BB C 1 10:41:23.00 42.529 00:01:25 Yes
72 G & L Loft - OR 2394-AU17-WPC Affirmation BB C 2 10:41:25.00 42.495 00:01:27 Yes
73 New Era Loft - PA 11611-AU17-ARPU Silhouette BCP H 4 10:41:27.00 42.461 00:01:29 Yes
74 P/R Loft - CA 0279-AU17-GSF Desciple BCW C 1 10:41:28.00 42.444 00:01:30 Yes
75 Champ Camp - IN 0224-AU17-CHMP Turning Point BB C 6 10:41:29.00 42.427 00:01:31 Yes
76 G & L Loft - OR 2379-AU17-WPC Game Changer BB H 3 10:41:33.00 42.359 00:01:35 Yes
77 Ojibwe Loft - OK 0042-AU17-OJIB Desert Wren BC H 2 10:41:41.00 42.223 00:01:43 Yes
77 Ken Easley-Silvercreek - NM 5140-AU17-ESLY Kees BB H 1 10:41:41.00 42.223 00:01:43 Yes
79 Longjohn Loft - OK 1183-AU17-FOYS ACHILLES SIL C 1 10:41:43.00 42.189 00:01:45 Yes
80 - 7625-IF17-FTST 1 10:41:59.00 41.921 00:02:01
81 Nesler Boyz - CA 1800-AU17-TCH Destined Choice RGRI H 1 10:42:00.00 41.905 00:02:02 Hold
82 Champ Camp - IN 0237-AU17-CHMP Dark Runner SMOK C 7 10:42:04.00 41.838 00:02:06 Yes
83 Nesneb Racing Loft - AL 17146-AU17-MOB Done That BBWF C 2 10:42:05.00 41.822 00:02:07 Yes
84 1-Tonyloft - VA 0639-AU17-ZHNG Check me Twice BC C 1 10:42:08.00 41.772 00:02:10 Yes
84 A D L Sheila - IL 0202-AU17-ADL National Two BB C 4 10:42:08.00 41.772 00:02:10 Yes
84 Hi-Cal Connection - CA 0779-AU17-HAWI Mad Max BC C 2 10:42:08.00 41.772 00:02:10 Yes
87 Hollywood Lou Loft - FL 0062-AU17-LOU Midnite Lace BB H 4 10:42:11.00 41.723 00:02:13 Yes
87 Aurelio Aranda - AZ 42211-AU17-AA Mind Game BB C 1 10:42:11.00 41.723 00:02:13 Yes
89 Acre Farms - CA 0348-AU17-GENE Paid to Show SLAT C 3 10:42:18.00 41.608 00:02:20 Yes
90 A B C Loft2 - NY 59750-AU17-ARPU BamBoo BB C 4 10:42:20.00 41.575 00:02:22 Yes
91 Racing Pigeon Mall - WA 0724-AU17-RPM Bet America BB C 5 10:42:22.00 41.542 00:02:24 Yes
92 Johnny's Automotive - CA 32892-AU17-JEDD Secret Window BB H 3 10:42:25.00 41.493 00:02:27 Yes
93 Aurelio Aranda - AZ 42210-AU17-AA SHREK BBWF C 2 10:42:27.00 41.461 00:02:29 Yes
94 Bieche-Stevenson - CA 7444-AU17-BIEC Blue Million BBWF C 2 10:42:38.00 41.282 00:02:40 Yes
95 Acre Farms - CA 0305-AU17-GENE Blade Runner BB C 4 10:42:41.00 41.234 00:02:43 Yes
96 John Partridge - CA 0629-AU17-PASO Americana RC C 2 10:42:42.00 41.218 00:02:44 Yes
97 Team Fujitake - HI 13911-AU17-FOYS Blue Hilo BBWF H 1 10:42:47.00 41.138 00:02:49 Yes
98 Jack's Loft - CA 4395-AU17-FOYS Chosen Pleasure BBPD H 4 10:42:48.00 41.121 00:02:50 Yes
99 Prout Loft - CA 0057-AU17-PRT Privileged Few BCP C 1 10:42:50.00 41.089 00:02:52 Yes
100 Daehn/Miele - FL 0404-AU17-NWFI Litigator Man BB C 1 10:42:57.00 40.978 00:02:59 Yes

There are 255 bird records

Note: These Race Results are unofficial and subject to change until verified by the Race Committee and declared final.